Fort Dodge Regional Airport
KFOD : now visible

Airfield :











YOU CAN JOIN US ON...

 
LOGIN :

Register | Disclaimer

   EN    FR    IT 

 









Legend :    VFR   Marginal VFR   IFR   Intensive IFR   Very Intensive IFR
Visi :
Ceiling :
>= 8 km
>= 3000ft
5 to 8 km
1000 to 3000 ft
1500m to 5 km
500 to 1000 ft
800 to 1500m
200 to 500 ft
< 800m
< 200 ft
Symbols :   Thunderstorms  Fog  Heavy snow  Heavy precipitations  Wind > 20 kt






- Airport Elevation : 1156 ft
- IATA code : FOD


KFOD - Fort Dodge Regional

CURRENT METAR :
  • 270456Z AUTO 00000KT 10SM CLR M06/M08 A3018 RMK AO2 SLP266 T10611078 400001078 FZRANO

EXPIRED METARs :
  • 270356Z AUTO 00000KT 10SM OVC046 M05/M06 A3018 RMK AO2 SLP268 T10501061 FZRANO
  • 270256Z AUTO 00000KT 10SM SCT044 M04/M06 A3020 RMK AO2 SLP275 T10391056 58010 FZRANO
  • 270156Z AUTO 00000KT 10SM OVC043 M03/M06 A3021 RMK AO2 SLP278 T10281056 FZRANO

TAF KFOD
Valid from the 27 at 00:00 until the 28 at 00:00 UTC


262320Z 2700/2724 32007KT P6SM BKN040
FM270300 36003KT P6SM BKN080



MET'MAP, your aeronautical weather chart ! - Copyright ORBIFLY December 2007 - Disclaimer

ORBIFLY MET'MAP TEAM :

Programming & Development : Alexandra Zaïnal
Concept & original design : Baudouin d'Aumeries
Assistance for programming : Marc-Olivier Méhu
Technical & hardware support : Manuel Goepfert

Contact : metmap@orbifly.com




SOURCES & CREDITS :

   NOAA       Earth
Advisory